الصفحة الرئيسية
METAR-TAF:

METAR-TAF

مطار :

مطار دوشانبي الدولي

دوشنبه, طاجيكستان

دائرة عرض: 38-33N, خط طول: 068-47E, ارتفاع: 803 متر

مراقبة الطقس الحالي

تاريخ ووقت الإصدار 38 دقيقة قبل الساعة 10:00UTC
رياح هادئة
درجة الحرارة 4°درجة مئوية
الرطوبة 75%
ضغط 1026 hPa
الرؤية: 2600 متر
غيوم قليلة على ارتفاع 1500 قدم
غيوم متفرقة على ارتفاع 8900 قدم
غشاء, دخان

METAR: UTDD 251000Z 00000MPS 2600 BR FU FEW015 SCT089 04/M00 Q1026 R09/29//50 NOSIG RMK QFE700/0934

زمن: 15:38 (10:38 UTC)

توقعات

تاريخ ووقت الإصدار 1ساعة و 38 دقيقة قبل الساعة 09:00UTC
التوقعات صالحة من25 الساعة 10 UTC إلى 25 الساعة 22 UTC
ريح 4 عقدةمن اتجاهات متغيرة
الرؤية: 2100 متر
غيوم متفرقة على ارتفاع 1100 قدم
غيوم مفككة على ارتفاع 3300 قدم
غشاء, دخان
مؤقت
من 25 الساعة 10 UTC إلى 25 الساعة 22 UTC
الرؤية: 1000 متر
غيوم متفرقة على ارتفاع 600 قدم
غشاء, دخان

TAF: UTDD 250900Z 2510/2522 VRB02MPS 2100 BR FU SCT011 BKN033 TEMPO 2510/2522 1000 BR FU SCT006

أرصاد الطقس والتوقعات من أكثر من 4000 مطار (تقارير الطقس للمطار METAR والتنبؤ بالطقس بالمطارTAF).

المحطات المتاحة هي النقط الصفراء والحمراء على الخريطة.

حرك المؤشر فوق النقطة لمعرفة اسم المحطة.

ثم انقر لمعرفة أرصاد وتوقعات الطقس.

لتغيير الخارطة: اضغط على الأزرار الخضراء مع رمز الصليب الأسود للتكبير. على الزر الأخضر مع شرطة للتصغير، أو على الأسهم الخضراء للخرائط المجاورة.


METAR-TAF: